Time;durP1;ratioP1;P1;durP2;ratioP2;P2;SDS_P1;SDS_P2;PMS_P1;PMS_P2;Temp;Humidity;BMP_temperature;BMP_pressure;BME280_temperature;BME280_humidity;BME280_pressure;Samples;Min_cycle;Max_cycle;Signal;HPM_P1;HPM_P2
2022/11/20 00:00:25;;;;;;;12.50;10.50;;;;;;;0.94;100.00;101226.41;5247783;28;20032;-68
2022/11/20 00:02:56;;;;;;;14.27;10.50;;;;;;;0.92;100.00;101229.97;5249223;28;20032;-68
2022/11/20 00:05:28;;;;;;;15.07;11.02;;;;;;;0.93;100.00;101235.03;5248880;28;20017;-68
2022/11/20 00:07:59;;;;;;;12.27;10.05;;;;;;;0.95;100.00;101232.44;5247963;28;20021;-70
2022/11/20 00:10:30;;;;;;;13.65;10.48;;;;;;;0.92;100.00;101229.97;5247563;28;20025;-68
2022/11/20 00:13:02;;;;;;;12.30;10.48;;;;;;;0.88;100.00;101223.25;5245870;28;20033;-68
2022/11/20 00:15:34;;;;;;;13.55;10.02;;;;;;;0.83;100.00;101227.72;5242912;28;20513;-69
2022/11/20 00:18:05;;;;;;;13.25;10.35;;;;;;;0.81;100.00;101224.38;5247834;28;20044;-68
2022/11/20 00:20:36;;;;;;;13.95;10.63;;;;;;;0.78;100.00;101220.16;5238146;28;20033;-68
2022/11/20 00:23:07;;;;;;;13.60;10.52;;;;;;;0.78;100.00;101227.91;5244230;28;20070;-68
2022/11/20 00:25:39;;;;;;;14.32;11.00;;;;;;;0.74;100.00;101223.75;5246893;28;20036;-69
2022/11/20 00:28:10;;;;;;;22.52;11.85;;;;;;;0.76;100.00;101214.25;5252712;28;20111;-68
2022/11/20 00:30:41;;;;;;;12.82;10.18;;;;;;;0.71;100.00;101218.72;5243110;28;20032;-69
2022/11/20 00:33:12;;;;;;;13.30;11.00;;;;;;;0.73;100.00;101214.34;5247706;28;20055;-69
2022/11/20 00:35:44;;;;;;;15.02;10.85;;;;;;;0.69;100.00;101221.34;5222151;28;20025;-68
2022/11/20 00:38:15;;;;;;;13.90;11.02;;;;;;;0.71;100.00;101218.72;5246993;28;20032;-68
2022/11/20 00:40:46;;;;;;;16.02;11.77;;;;;;;0.68;100.00;101216.25;5247494;28;20055;-68
2022/11/20 00:43:17;;;;;;;14.20;11.07;;;;;;;0.68;100.00;101216.25;5239229;28;20040;-69
2022/11/20 00:45:49;;;;;;;13.90;10.85;;;;;;;0.67;100.00;101212.81;5242128;28;20017;-68
2022/11/20 00:48:20;;;;;;;15.00;10.82;;;;;;;0.64;100.00;101214.69;5248070;28;20029;-69
2022/11/20 00:50:51;;;;;;;14.65;11.23;;;;;;;0.59;100.00;101211.44;5240767;28;20033;-68
2022/11/20 00:53:23;;;;;;;13.50;10.77;;;;;;;0.56;100.00;101206.41;5252293;28;20021;-68
2022/11/20 00:56:00;;;;;;;17.33;11.23;;;;;;;0.67;100.00;101217.16;5244397;28;20494;-68
2022/11/20 00:58:36;;;;;;;13.82;10.98;;;;;;;0.66;100.00;101221.47;5240748;28;20033;-68
2022/11/20 01:01:25;;;;;;;18.25;12.15;;;;;;;0.65;100.00;101212.06;5245828;28;20057;-68
2022/11/20 01:03:59;;;;;;;13.77;10.63;;;;;;;0.55;100.00;101218.44;5242311;28;20037;-68
2022/11/20 01:06:33;;;;;;;15.55;11.40;;;;;;;0.55;100.00;101208.13;5243990;28;20461;-68
2022/11/20 01:09:11;;;;;;;14.05;10.77;;;;;;;0.57;100.00;101206.34;5251995;28;20048;-68
2022/11/20 01:11:44;;;;;;;14.85;10.85;;;;;;;0.52;100.00;101217.72;5243075;28;20101;-69
2022/11/20 01:14:18;;;;;;;15.50;11.55;;;;;;;0.58;100.00;101217.50;5240432;28;20055;-68
2022/11/20 01:16:51;;;;;;;15.38;11.43;;;;;;;0.48;100.00;101214.41;5250034;28;20555;-69
2022/11/20 01:19:23;;;;;;;12.50;10.25;;;;;;;0.40;100.00;101221.59;5243323;28;20086;-68
2022/11/20 01:21:54;;;;;;;14.25;11.35;;;;;;;0.41;100.00;101223.25;5248495;28;20108;-69
2022/11/20 01:24:26;;;;;;;15.70;10.45;;;;;;;0.44;100.00;101224.00;5243862;28;20053;-68
2022/11/20 01:26:57;;;;;;;14.52;11.23;;;;;;;0.43;100.00;101224.91;5247191;28;20028;-69
2022/11/20 01:29:28;;;;;;;14.30;11.38;;;;;;;0.45;100.00;101220.50;5237350;28;20037;-69
2022/11/20 01:31:59;;;;;;;15.57;12.30;;;;;;;0.41;100.00;101223.25;5242072;28;20037;-68
2022/11/20 01:34:31;;;;;;;14.88;11.38;;;;;;;0.41;100.00;101212.94;5248548;28;20474;-68
2022/11/20 01:37:02;;;;;;;14.70;11.82;;;;;;;0.44;100.00;101203.38;5239358;28;20750;-69
2022/11/20 01:39:33;;;;;;;14.45;11.85;;;;;;;0.42;100.00;101206.94;5239624;28;20104;-69
2022/11/20 01:44:59;;;;;;;15.88;11.68;;;;;;;0.54;100.00;101214.19;5246209;28;20140;-68
2022/11/20 01:47:37;;;;;;;15.75;11.40;;;;;;;0.43;100.00;101204.28;5243295;28;20057;-68
2022/11/20 01:50:15;;;;;;;13.93;11.38;;;;;;;0.39;100.00;101207.88;5241909;28;20036;-68
2022/11/20 01:53:09;;;;;;;15.35;11.13;;;;;;;0.48;100.00;101207.50;5247397;28;20032;-70
2022/11/20 01:55:44;;;;;;;;;;;;;;;0.85;100.00;101218.19;5243112;28;20029;-68
2022/11/20 01:58:19;;;;;;;15.13;10.60;;;;;;;0.35;100.00;101218.34;5242225;28;20378;-68
2022/11/20 02:00:50;;;;;;;14.98;10.98;;;;;;;0.24;100.00;101206.69;5243239;28;20048;-68
2022/11/20 02:03:22;;;;;;;14.40;11.05;;;;;;;0.23;100.00;101207.59;5243575;28;20021;-69
2022/11/20 02:06:32;;;;;;;13.65;10.50;;;;;;;0.45;100.00;101207.63;5243440;28;20029;-68
2022/11/20 02:09:04;;;;;;;13.10;10.13;;;;;;;0.22;100.00;101202.47;5246948;28;20029;-69
2022/11/20 02:11:35;;;;;;;13.85;10.73;;;;;;;0.19;100.00;101200.00;5237111;28;20044;-69
2022/11/20 02:14:07;;;;;;;13.82;11.23;;;;;;;0.15;100.00;101198.44;5245901;28;20033;-68
2022/11/20 02:16:44;;;;;;;13.65;11.23;;;;;;;0.10;100.00;101193.44;5240375;28;20025;-69
2022/11/20 02:19:23;;;;;;;13.45;10.95;;;;;;;0.18;100.00;101199.16;5245246;28;20096;-68
2022/11/20 02:21:59;;;;;;;14.70;11.35;;;;;;;0.18;100.00;101198.31;5245104;28;20061;-68
2022/11/20 02:24:31;;;;;;;14.38;10.90;;;;;;;0.11;100.00;101196.88;5243632;28;20489;-69
2022/11/20 02:27:07;;;;;;;14.80;11.27;;;;;;;0.13;100.00;101198.50;5246703;28;20035;-68
2022/11/20 02:29:44;;;;;;;15.57;11.07;;;;;;;0.19;100.00;101197.44;5238714;28;20482;-68
2022/11/20 02:32:19;;;;;;;15.65;11.68;;;;;;;0.14;100.00;101204.50;5244552;28;20428;-68
2022/11/20 02:34:51;;;;;;;14.23;11.13;;;;;;;0.10;100.00;101197.78;5242818;28;20056;-68
2022/11/20 02:37:27;;;;;;;13.52;11.27;;;;;;;0.12;100.00;101199.41;5244430;28;20118;-68
2022/11/20 02:39:58;;;;;;;14.82;11.50;;;;;;;0.13;100.00;101195.09;5236327;28;20036;-68
2022/11/20 02:42:29;;;;;;;12.73;10.93;;;;;;;0.08;100.00;101194.41;5239262;28;20029;-68
2022/11/20 02:45:01;;;;;;;13.05;10.57;;;;;;;0.12;100.00;101199.41;5260694;22;20053;-68
2022/11/20 02:47:33;;;;;;;14.13;10.65;;;;;;;0.24;100.00;101198.13;5250853;28;20041;-68
2022/11/20 02:50:06;;;;;;;17.23;11.45;;;;;;;0.36;100.00;101189.94;5255183;28;20046;-68
2022/11/20 02:52:37;;;;;;;;;;;;;;;0.86;100.00;101201.81;5255259;28;20028;-68
2022/11/20 02:55:09;;;;;;;17.27;11.10;;;;;;;0.46;100.00;101199.03;5242698;28;19912;-68
2022/11/20 02:57:40;;;;;;;14.60;10.80;;;;;;;0.46;100.00;101180.13;5244088;28;20029;-68
2022/11/20 03:00:12;;;;;;;15.35;10.82;;;;;;;0.45;100.00;101181.84;5243299;28;20025;-68
2022/11/20 03:02:43;;;;;;;16.17;11.88;;;;;;;0.41;100.00;101189.75;5243080;28;20043;-68
2022/11/20 03:05:14;;;;;;;14.75;11.43;;;;;;;0.48;100.00;101170.59;5241231;28;20107;-68
2022/11/20 03:07:46;;;;;;;14.43;11.52;;;;;;;0.51;100.00;101179.97;5241073;28;20068;-68
2022/11/20 03:10:17;;;;;;;16.45;11.82;;;;;;;0.52;100.00;101182.47;5240735;28;20120;-68
2022/11/20 03:12:54;;;;;;;14.80;11.15;;;;;;;0.65;100.00;101178.53;5239404;28;20040;-68
2022/11/20 03:15:25;;;;;;;15.13;11.93;;;;;;;0.56;100.00;101172.88;5243901;28;20386;-68
2022/11/20 03:17:57;;;;;;;16.15;10.98;;;;;;;0.57;100.00;101175.41;5239344;28;20036;-68
2022/11/20 03:20:28;;;;;;;14.82;11.50;;;;;;;0.63;100.00;101170.00;5242965;28;20055;-68
2022/11/20 03:23:00;;;;;;;15.95;10.65;;;;;;;0.58;100.00;101177.09;5244344;28;20029;-68
2022/11/20 03:25:31;;;;;;;16.08;12.07;;;;;;;0.60;100.00;101182.19;5254504;28;20112;-68
2022/11/20 03:28:03;;;;;;;14.90;11.90;;;;;;;0.58;100.00;101174.50;5245460;28;20029;-68
2022/11/20 03:30:37;;;;;;;15.95;11.88;;;;;;;0.68;100.00;101175.84;5237470;28;20033;-68
2022/11/20 03:33:08;;;;;;;15.35;11.70;;;;;;;0.63;100.00;101164.00;5238408;28;20026;-68
2022/11/20 03:35:40;;;;;;;15.63;11.55;;;;;;;0.66;100.00;101161.31;5248692;28;20504;-68
2022/11/20 03:38:11;;;;;;;14.52;12.00;;;;;;;0.62;100.00;101145.13;5244509;28;20508;-68
2022/11/20 03:40:42;;;;;;;16.75;12.27;;;;;;;0.70;100.00;101157.72;5231466;28;20071;-68
2022/11/20 03:43:13;;;;;;;17.88;13.00;;;;;;;0.71;100.00;101142.19;5242876;28;20033;-68
2022/11/20 03:45:45;;;;;;;15.13;11.70;;;;;;;0.71;100.00;101142.19;5238959;28;20045;-68
2022/11/20 03:48:16;;;;;;;16.15;12.10;;;;;;;0.70;100.00;101148.25;5237488;28;20045;-68
2022/11/20 03:50:47;;;;;;;13.93;11.70;;;;;;;0.73;100.00;101144.72;5244134;28;20128;-68
2022/11/20 03:53:19;;;;;;;14.32;11.23;;;;;;;0.71;100.00;101141.34;5237054;28;20029;-68
2022/11/20 03:55:51;;;;;;;17.42;11.90;;;;;;;0.75;100.00;101145.47;5238416;28;20021;-68
2022/11/20 03:58:22;;;;;;;13.98;11.32;;;;;;;0.66;100.00;101136.38;5240083;28;20091;-68
2022/11/20 04:00:54;;;;;;;24.92;12.43;;;;;;;0.74;100.00;101130.91;5238178;28;20033;-68
2022/11/20 04:03:25;;;;;;;15.10;11.45;;;;;;;0.71;100.00;101131.03;5238371;28;20026;-68
2022/11/20 04:06:02;;;;;;;16.63;12.18;;;;;;;0.70;100.00;101129.38;5238425;28;20025;-68
2022/11/20 04:08:33;;;;;;;15.07;11.23;;;;;;;0.58;100.00;101130.69;5248212;28;20041;-68
2022/11/20 04:11:22;;;;;;;17.30;12.30;;;;;;;0.76;100.00;101138.59;5242712;28;20117;-68
2022/11/20 04:13:58;;;;;;;15.10;11.75;;;;;;;0.65;100.00;101131.28;5237772;28;20421;-68
2022/11/20 04:16:31;;;;;;;16.20;11.57;;;;;;;0.58;100.00;101125.53;5241971;28;20049;-68
2022/11/20 04:19:04;;;;;;;14.95;11.30;;;;;;;0.68;100.00;101131.16;5237637;28;20478;-68
2022/11/20 04:21:36;;;;;;;15.95;12.45;;;;;;;0.61;100.00;101130.56;5224246;28;20029;-68
2022/11/20 04:24:07;;;;;;;13.52;11.65;;;;;;;0.66;100.00;101128.66;5237842;28;20025;-68
2022/11/20 04:26:39;;;;;;;15.38;12.00;;;;;;;0.64;100.00;101127.00;5241839;28;20074;-68
2022/11/20 04:29:11;;;;;;;17.23;12.73;;;;;;;0.62;100.00;101127.09;5245088;28;20044;-68
2022/11/20 04:31:43;;;;;;;15.10;12.10;;;;;;;0.63;100.00;101127.91;5237168;28;20079;-68
2022/11/20 04:34:14;;;;;;;15.52;12.15;;;;;;;0.62;100.00;101131.41;5241783;28;20033;-68
2022/11/20 04:36:45;;;;;;;15.02;11.73;;;;;;;0.60;100.00;101126.28;5226973;28;20493;-68
2022/11/20 04:39:16;;;;;;;15.05;12.00;;;;;;;0.41;100.00;101102.97;5236863;28;20541;-68
2022/11/20 04:41:48;;;;;;;15.07;11.60;;;;;;;0.61;100.00;101130.56;5237302;28;20470;-68
2022/11/20 04:44:19;;;;;;;14.90;11.43;;;;;;;0.67;100.00;101129.47;5237031;28;20440;-68
2022/11/20 04:46:50;;;;;;;15.63;11.93;;;;;;;0.59;100.00;101114.31;5241804;28;20029;-68
2022/11/20 04:49:22;;;;;;;13.88;11.60;;;;;;;0.61;100.00;101120.25;5239680;28;20045;-68
2022/11/20 04:51:53;;;;;;;15.73;11.63;;;;;;;0.60;100.00;101123.72;5242045;28;20033;-68
2022/11/20 04:54:25;;;;;;;14.02;11.90;;;;;;;0.54;100.00;101113.66;5219289;28;20025;-68
2022/11/20 04:56:56;;;;;;;15.30;11.75;;;;;;;0.61;100.00;101107.38;5236566;28;20029;-68
2022/11/20 04:59:27;;;;;;;16.27;11.40;;;;;;;0.54;100.00;101116.22;5240985;28;20429;-68
2022/11/20 05:01:59;;;;;;;17.75;12.20;;;;;;;0.52;100.00;101104.28;5240895;28;20033;-68
2022/11/20 05:04:30;;;;;;;17.52;12.20;;;;;;;0.56;100.00;101104.09;5228067;28;20029;-68
2022/11/20 05:07:01;;;;;;;14.85;11.80;;;;;;;0.52;100.00;101107.72;5240094;28;20029;-68
2022/11/20 05:09:32;;;;;;;15.32;11.60;;;;;;;0.58;100.00;101106.66;5240515;28;20028;-68
2022/11/20 05:12:04;;;;;;;15.35;12.00;;;;;;;0.63;100.00;101102.13;5240712;28;20032;-68
2022/11/20 05:14:35;;;;;;;17.10;11.90;;;;;;;0.67;100.00;101107.09;5237111;28;20124;-69
2022/11/20 05:17:10;;;;;;;15.18;11.70;;;;;;;0.73;100.00;101100.88;5240922;28;20022;-68
2022/11/20 05:19:41;;;;;;;14.32;11.98;;;;;;;0.66;100.00;101100.28;5242434;28;20044;-69
2022/11/20 05:22:12;;;;;;;14.73;12.05;;;;;;;0.72;100.00;101091.47;5240528;28;20541;-68
2022/11/20 05:24:44;;;;;;;14.35;11.40;;;;;;;0.71;100.00;101093.19;5237402;28;20379;-68
2022/11/20 05:27:15;;;;;;;17.73;13.45;;;;;;;0.76;100.00;101089.59;5238421;28;21272;-68
2022/11/20 05:29:46;;;;;;;17.35;12.25;;;;;;;0.73;100.00;101088.81;5241846;28;20482;-68
2022/11/20 05:32:17;;;;;;;17.27;12.82;;;;;;;0.75;100.00;101095.66;5247037;28;20031;-68
2022/11/20 05:34:49;;;;;;;15.50;12.27;;;;;;;0.73;100.00;101083.66;5244074;28;20021;-68
2022/11/20 05:37:20;;;;;;;15.68;12.05;;;;;;;0.77;100.00;101096.44;5243473;28;20123;-68
2022/11/20 05:39:51;;;;;;;16.42;12.43;;;;;;;0.75;100.00;101087.91;5236615;28;20036;-68
2022/11/20 05:42:31;;;;;;;13.88;11.25;;;;;;;0.71;100.00;101088.03;5235998;28;20488;-68
2022/11/20 05:45:04;;;;;;;19.25;12.05;;;;;;;0.83;100.00;101093.59;5240517;28;20053;-68
2022/11/20 05:47:35;;;;;;;15.93;12.03;;;;;;;0.83;100.00;101088.44;5235414;28;20128;-68
2022/11/20 05:50:07;;;;;;;15.90;12.30;;;;;;;0.86;100.00;101101.22;5218175;28;20120;-68
2022/11/20 05:52:38;;;;;;;15.75;11.75;;;;;;;0.86;100.00;101096.91;5246966;28;20112;-68
2022/11/20 05:55:09;;;;;;;14.95;12.27;;;;;;;0.91;100.00;101107.03;5241999;28;20036;-68
2022/11/20 05:57:40;;;;;;;17.10;13.60;;;;;;;0.94;100.00;101112.91;5240887;28;20087;-68
2022/11/20 06:00:12;;;;;;;16.00;12.90;;;;;;;0.96;100.00;101110.28;5235734;28;20037;-69
2022/11/20 06:02:44;;;;;;;15.45;12.13;;;;;;;0.93;100.00;101108.66;5238269;28;20041;-68
2022/11/20 06:05:15;;;;;;;15.63;12.73;;;;;;;1.04;100.00;101118.53;5239752;28;20037;-68
2022/11/20 06:07:46;;;;;;;14.38;11.85;;;;;;;1.10;100.00;101123.47;5231564;28;20029;-68
2022/11/20 06:10:17;;;;;;;16.65;12.73;;;;;;;1.10;100.00;101123.47;5238273;28;20052;-68
2022/11/20 06:12:49;;;;;;;16.10;12.70;;;;;;;1.12;100.00;101119.06;5217342;28;20017;-69
2022/11/20 06:15:20;;;;;;;15.60;12.25;;;;;;;1.14;100.00;101116.44;5235712;28;20057;-68
2022/11/20 06:17:53;;;;;;;17.83;12.07;;;;;;;1.18;100.00;101118.81;5243024;28;20044;-68
2022/11/20 06:20:24;;;;;;;13.77;11.10;;;;;;;1.19;100.00;101107.59;5236015;28;20102;-68
2022/11/20 06:22:56;;;;;;;13.48;11.52;;;;;;;1.19;100.00;101110.16;5234935;28;20029;-68
2022/11/20 06:25:27;;;;;;;17.08;11.82;;;;;;;1.24;100.00;101106.56;5242532;28;20087;-68
2022/11/20 06:27:58;;;;;;;16.10;12.30;;;;;;;1.28;100.00;101110.69;5234407;28;20362;-68
2022/11/20 06:30:29;;;;;;;17.05;12.95;;;;;;;1.32;100.00;101114.81;5243989;28;20622;-68
2022/11/20 06:33:01;;;;;;;15.15;12.30;;;;;;;1.32;100.00;101101.91;5246791;28;20497;-68
2022/11/20 06:35:32;;;;;;;14.55;12.07;;;;;;;1.36;100.00;101103.44;5245276;28;20632;-68
2022/11/20 06:38:04;;;;;;;15.90;12.60;;;;;;;1.36;100.00;101100.88;5245718;28;20232;-68
2022/11/20 06:40:35;;;;;;;15.68;12.43;;;;;;;1.41;100.00;101092.03;5243873;28;20408;-68
2022/11/20 06:43:06;;;;;;;16.08;12.80;;;;;;;1.41;100.00;101086.88;5245845;28;20374;-68
2022/11/20 06:45:37;;;;;;;15.18;12.63;;;;;;;1.42;100.00;101092.88;5244980;28;20556;-68
2022/11/20 06:48:09;;;;;;;15.05;13.00;;;;;;;1.48;100.00;101084.88;5241920;28;20492;-68
2022/11/20 06:50:40;;;;;;;17.23;12.93;;;;;;;1.50;100.00;101089.97;5237985;28;20037;-68
2022/11/20 06:53:12;;;;;;;16.52;13.02;;;;;;;1.53;100.00;101089.84;5236872;28;20033;-68
2022/11/20 06:55:44;;;;;;;16.80;13.02;;;;;;;1.55;100.00;101085.44;5233486;28;21352;-68
2022/11/20 06:58:17;;;;;;;17.30;13.57;;;;;;;1.59;100.00;101090.41;5237239;28;20045;-68
2022/11/20 07:00:48;;;;;;;16.05;13.57;;;;;;;1.64;100.00;101091.03;5238512;28;20501;-68
2022/11/20 07:03:20;;;;;;;19.15;13.35;;;;;;;1.65;100.00;101086.72;5245186;28;20037;-68
2022/11/20 07:05:51;;;;;;;19.08;13.60;;;;;;;1.67;100.00;101095.25;5234873;28;20026;-68
2022/11/20 07:08:23;;;;;;;16.73;13.90;;;;;;;1.67;100.00;101097.84;5240776;28;20028;-68
2022/11/20 07:10:59;;;;;;;17.77;13.77;;;;;;;1.75;100.00;101089.75;5236074;28;20029;-68
2022/11/20 07:13:31;;;;;;;18.63;14.68;;;;;;;1.67;100.00;101090.09;5236091;28;20021;-68
2022/11/20 07:16:05;;;;;;;19.00;15.43;;;;;;;1.72;100.00;101087.28;5234683;28;21970;-68
2022/11/20 07:18:37;;;;;;;19.08;15.27;;;;;;;1.64;100.00;101079.88;5240331;28;20295;-68
2022/11/20 07:21:10;;;;;;;19.17;15.27;;;;;;;1.66;100.00;101078.88;5245538;28;20025;-68
2022/11/20 07:23:41;;;;;;;19.30;15.32;;;;;;;1.67;100.00;101082.34;5236239;28;20045;-68
2022/11/20 07:26:12;;;;;;;19.25;16.05;;;;;;;1.74;100.00;101085.47;5235951;28;20421;-68
2022/11/20 07:28:45;;;;;;;19.50;15.85;;;;;;;1.73;100.00;101081.22;5237498;28;20121;-68
2022/11/20 07:31:16;;;;;;;20.02;15.88;;;;;;;1.68;100.00;101068.50;5232962;28;21060;-68
2022/11/20 07:33:47;;;;;;;19.50;15.68;;;;;;;1.73;100.00;101078.63;5234583;28;20024;-68
2022/11/20 07:36:18;;;;;;;20.13;15.68;;;;;;;1.62;100.00;101064.44;5239572;28;20060;-68
2022/11/20 07:38:50;;;;;;;20.65;16.48;;;;;;;1.67;100.00;101066.84;5240789;28;20116;-68
2022/11/20 07:41:21;;;;;;;23.33;16.27;;;;;;;1.66;100.00;101068.56;5234277;28;20032;-68
2022/11/20 07:43:52;;;;;;;19.52;15.70;;;;;;;1.72;100.00;101069.22;5232707;28;20072;-68
2022/11/20 07:46:24;;;;;;;19.15;15.23;;;;;;;1.67;100.00;101072.84;5243103;28;20030;-68
2022/11/20 07:48:55;;;;;;;21.25;15.52;;;;;;;1.65;100.00;101076.38;5238958;28;20124;-68
2022/11/20 07:51:27;;;;;;;20.88;15.40;;;;;;;1.75;100.00;101077.66;5236891;28;20099;-68
2022/11/20 07:53:58;;;;;;;20.38;15.07;;;;;;;1.75;100.00;101069.09;5222480;28;20029;-68
2022/11/20 07:56:29;;;;;;;18.30;15.27;;;;;;;1.78;100.00;101077.53;5239434;28;20120;-68
2022/11/20 07:59:01;;;;;;;22.10;15.10;;;;;;;1.87;100.00;101071.09;5242195;28;20056;-68
2022/11/20 08:01:32;;;;;;;17.20;14.15;;;;;;;1.88;100.00;101076.19;5247611;28;20029;-68
2022/11/20 08:04:03;;;;;;;17.67;14.23;;;;;;;1.95;100.00;101081.94;5248080;28;20046;-68
2022/11/20 08:06:35;;;;;;;16.95;13.95;;;;;;;1.95;100.00;101081.94;5238926;28;20037;-68
2022/11/20 08:09:06;;;;;;;17.55;13.73;;;;;;;2.06;100.00;101073.69;5237270;28;20038;-69
2022/11/20 08:14:27;;;;;;;19.02;14.48;;;;;;;2.17;100.00;101069.72;5245633;28;20021;-68
2022/11/20 08:16:59;;;;;;;15.50;13.23;;;;;;;2.25;100.00;101081.44;5246768;28;20029;-69
2022/11/20 08:19:30;;;;;;;19.63;13.88;;;;;;;2.26;100.00;101075.34;5243427;28;20397;-68
2022/11/20 08:22:01;;;;;;;16.70;13.43;;;;;;;2.29;100.00;101081.22;5244566;28;20025;-69
2022/11/20 08:24:33;;;;;;;16.38;13.65;;;;;;;2.28;100.00;101079.56;5244901;28;20584;-69
2022/11/20 08:27:04;;;;;;;16.40;14.57;;;;;;;2.31;100.00;101082.00;5245718;28;20513;-68
2022/11/20 08:29:35;;;;;;;15.57;13.20;;;;;;;2.37;100.00;101078.28;5252324;28;20061;-69
2022/11/20 08:32:06;;;;;;;18.38;14.10;;;;;;;2.42;100.00;101076.31;5247209;28;20374;-69
2022/11/20 08:34:38;;;;;;;19.48;14.50;;;;;;;2.46;100.00;101077.84;5245710;28;20455;-69
2022/11/20 08:37:09;;;;;;;17.17;14.90;;;;;;;2.52;100.00;101077.56;5246989;28;20463;-68
2022/11/20 08:39:40;;;;;;;16.75;14.13;;;;;;;2.60;100.00;101074.59;5246041;28;20036;-68
2022/11/20 08:42:12;;;;;;;17.13;14.35;;;;;;;2.64;100.00;101076.97;5247675;28;20029;-69
2022/11/20 08:44:43;;;;;;;17.05;13.48;;;;;;;2.74;100.00;101077.38;5215741;28;20169;-68
2022/11/20 08:47:14;;;;;;;17.17;13.98;;;;;;;2.74;100.00;101069.63;5246783;28;20083;-68
2022/11/20 08:49:45;;;;;;;16.92;13.00;;;;;;;2.75;100.00;101063.53;5246686;28;20027;-68
2022/11/20 08:52:17;;;;;;;18.60;13.48;;;;;;;2.81;100.00;101075.34;5245602;28;20391;-68
2022/11/20 08:54:48;;;;;;;16.85;13.50;;;;;;;2.87;100.00;101073.25;5244788;28;20501;-68
2022/11/20 08:57:19;;;;;;;19.15;13.60;;;;;;;2.93;100.00;101072.13;5243903;28;20421;-68
2022/11/20 08:59:50;;;;;;;17.30;13.25;;;;;;;2.96;100.00;101066.81;5245282;28;20025;-69
2022/11/20 09:02:22;;;;;;;19.35;13.75;;;;;;;3.00;100.00;101062.31;5247330;28;20466;-68
2022/11/20 09:04:53;;;;;;;17.85;13.82;;;;;;;3.08;100.00;101070.53;5238491;28;20088;-69
2022/11/20 09:07:24;;;;;;;19.60;13.63;;;;;;;3.08;100.00;101063.63;5240096;28;20025;-69
2022/11/20 09:09:55;;;;;;;18.38;14.23;;;;;;;3.13;100.00;101061.63;5241288;28;20099;-68
2022/11/20 09:12:27;;;;;;;18.88;14.35;;;;;;;3.18;100.00;101063.97;5229633;28;20059;-68
2022/11/20 09:14:58;;;;;;;23.27;15.70;;;;;;;3.23;100.00;101056.81;5239691;28;20059;-68
2022/11/20 09:17:29;;;;;;;24.10;16.23;;;;;;;3.20;100.00;101050.97;5240651;28;20044;-68
2022/11/20 09:20:00;;;;;;;25.70;17.40;;;;;;;3.26;100.00;101054.09;5237549;28;20029;-68
2022/11/20 09:22:32;;;;;;;22.60;16.00;;;;;;;3.32;100.00;101048.56;5239905;28;20079;-68
2022/11/20 09:25:04;;;;;;;23.02;16.33;;;;;;;3.35;100.00;101052.78;5248808;28;20036;-68
2022/11/20 09:27:35;;;;;;;29.02;18.30;;;;;;;3.44;100.00;101036.75;5221842;28;20398;-68
2022/11/20 09:30:07;;;;;;;29.55;18.05;;;;;;;3.46;100.00;101034.09;5231305;28;20495;-69
2022/11/20 09:32:39;;;;;;;30.20;18.33;;;;;;;3.50;100.00;101033.84;5238827;28;20560;-69
2022/11/20 09:35:10;;;;;;;28.58;19.17;;;;;;;3.53;100.00;101030.28;5244824;28;20037;-68
2022/11/20 09:37:41;;;;;;;31.42;19.25;;;;;;;3.44;100.00;101005.66;5240950;28;20036;-68
2022/11/20 09:40:28;;;;;;;33.13;21.65;;;;;;;3.72;100.00;101014.59;5250051;28;20088;-69
2022/11/20 09:43:14;;;;;;;30.75;20.13;;;;;;;3.79;100.00;101006.41;5243083;28;20029;-68
2022/11/20 09:46:04;;;;;;;33.17;20.60;;;;;;;3.77;100.00;101007.41;5236101;28;20049;-69
2022/11/20 09:48:57;;;;;;;34.90;21.65;;;;;;;3.88;100.00;101010.25;5232694;28;20037;-68
2022/11/20 09:51:40;;;;;;;34.72;21.85;;;;;;;3.90;100.00;101017.03;5245307;28;20025;-68
2022/11/20 09:54:18;;;;;;;40.53;23.90;;;;;;;3.88;100.00;101010.25;5240734;28;20103;-69
2022/11/20 09:56:56;;;;;;;37.67;22.65;;;;;;;3.84;100.00;100998.38;5241489;28;20024;-69
2022/11/20 09:59:40;;;;;;;41.58;23.38;;;;;;;3.92;100.00;101009.16;5239398;28;20028;-68
2022/11/20 10:02:23;;;;;;;40.65;24.23;;;;;;;3.97;100.00;100991.59;5244209;28;20104;-69
2022/11/20 10:05:06;;;;;;;39.40;22.50;;;;;;;3.87;100.00;100988.69;5234580;28;20034;-69
2022/11/20 10:07:51;;;;;;;38.80;23.38;;;;;;;4.07;100.00;100984.97;5235833;28;20060;-69
2022/11/20 10:10:45;;;;;;;35.75;22.35;;;;;;;4.20;100.00;100979.94;5239714;28;20039;-69
2022/11/20 10:13:35;;;;;;;;;;;;;;;4.49;100.00;100964.50;5241726;28;20634;-70
2022/11/20 10:16:37;;;;;;;33.08;20.90;;;;;;;4.10;100.00;100960.66;5237216;28;19917;-69
2022/11/20 10:19:25;;;;;;;31.77;21.55;;;;;;;4.21;100.00;100939.31;5245435;28;20024;-69
2022/11/20 10:22:30;;;;;;;31.48;21.63;;;;;;;4.37;100.00;100930.56;5235605;28;20053;-69
2022/11/20 10:25:18;;;;;;;35.20;21.98;;;;;;;4.42;100.00;100932.06;5243357;28;20096;-69
2022/11/20 10:28:30;;;;;;;35.60;22.88;;;;;;;4.56;100.00;100935.53;5237377;28;20021;-69
2022/11/20 10:31:11;;;;;;;33.95;21.75;;;;;;;4.51;100.00;100934.09;5187172;28;20055;-69
2022/11/20 10:33:46;;;;;;;39.17;24.17;;;;;;;4.49;100.00;100928.19;5218580;28;20025;-69
2022/11/20 10:36:23;;;;;;;31.88;23.17;;;;;;;4.50;100.00;100925.47;5240725;28;20033;-69
2022/11/20 10:39:03;;;;;;;32.58;22.55;;;;;;;4.57;100.00;100913.81;5242605;28;20029;-69
2022/11/20 10:41:40;;;;;;;33.65;22.77;;;;;;;4.55;100.00;100907.06;5241268;28;20025;-69
2022/11/20 10:47:29;;;;;;;35.45;22.75;;;;;;;4.53;100.00;100901.97;5236048;28;20401;-69
2022/11/20 10:50:05;;;;;;;34.40;23.85;;;;;;;4.61;100.00;100891.97;5241466;28;20091;-69
2022/11/20 10:52:45;;;;;;;34.95;23.50;;;;;;;4.60;100.00;100886.88;5238884;28;20036;-69
2022/11/20 10:55:49;;;;;;;38.47;24.70;;;;;;;4.80;100.00;100886.50;5232771;28;20052;-69
2022/11/20 10:58:33;;;;;;;37.10;26.17;;;;;;;4.78;100.00;100872.81;5234867;28;20471;-69
2022/11/20 11:01:26;;;;;;;36.58;24.90;;;;;;;4.82;100.00;100873.47;5239581;28;20109;-69
2022/11/20 11:03:58;;;;;;;37.45;24.75;;;;;;;4.68;100.00;100865.66;5240154;28;20043;-69
2022/11/20 11:06:42;;;;;;;35.45;24.42;;;;;;;4.87;100.00;100879.19;5240779;28;20029;-69
2022/11/20 11:09:19;;;;;;;36.00;25.02;;;;;;;4.84;100.00;100869.00;5242010;28;20041;-69
2022/11/20 11:11:50;;;;;;;33.70;24.63;;;;;;;4.77;100.00;100865.97;5239254;28;20025;-69
2022/11/20 11:14:24;;;;;;;37.28;25.90;;;;;;;4.82;100.00;100865.66;5236983;28;20043;-69
2022/11/20 11:16:57;;;;;;;36.78;25.38;;;;;;;4.80;100.00;100862.31;5247390;28;20028;-69
2022/11/20 11:19:28;;;;;;;36.92;23.80;;;;;;;4.84;100.00;100867.22;5242507;28;20060;-69
2022/11/20 11:22:06;;;;;;;32.72;24.63;;;;;;;4.83;100.00;100864.75;5241750;28;20030;-69
2022/11/20 11:24:37;;;;;;;33.05;24.23;;;;;;;4.82;100.00;100863.91;5244514;28;20108;-69
2022/11/20 11:27:17;;;;;;;38.70;26.02;;;;;;;4.95;100.00;100848.41;5245761;28;20623;-69
2022/11/20 11:29:48;;;;;;;34.88;24.92;;;;;;;4.87;100.00;100853.25;5242447;28;20053;-70
2022/11/20 11:32:21;;;;;;;36.50;24.85;;;;;;;4.89;100.00;100846.22;5244066;28;20107;-70
2022/11/20 11:35:03;;;;;;;;;;;;;;;5.41;100.00;100840.34;5241989;28;20049;-69
2022/11/20 11:37:38;;;;;;;36.45;24.23;;;;;;;4.98;100.00;100843.03;5242841;28;20004;-69
2022/11/20 11:40:11;;;;;;;33.72;23.27;;;;;;;4.91;100.00;100836.53;5240060;28;20040;-69
2022/11/20 11:42:44;;;;;;;37.47;26.03;;;;;;;4.94;100.00;100832.94;5243454;28;20072;-69
2022/11/20 11:45:17;;;;;;;34.72;24.77;;;;;;;4.94;100.00;100825.97;5240029;28;20288;-69
2022/11/20 11:47:51;;;;;;;35.88;24.33;;;;;;;4.95;100.00;100827.63;5245777;28;20029;-69